Time;durP1;ratioP1;P1;durP2;ratioP2;P2;SDS_P1;SDS_P2;PMS_P1;PMS_P2;Temp;Humidity;BMP_temperature;BMP_pressure;BME280_temperature;BME280_humidity;BME280_pressure;Samples;Min_cycle;Max_cycle;Signal;HPM_P1;HPM_P2
2022/07/11 00:01:12;;;;;;;6.47;3.40;;;;;;;13.00;100.00;96979.16;5084927;28;20068;-56
2022/07/11 00:03:41;;;;;;;5.32;3.45;;;;;;;13.16;100.00;96978.53;5084342;28;20072;-56
2022/07/11 00:06:09;;;;;;;6.45;3.45;;;;;;;12.99;100.00;96964.25;5086123;28;20171;-51
2022/07/11 00:08:38;;;;;;;8.23;3.58;;;;;;;13.06;100.00;96964.50;5084400;28;20521;-44
2022/07/11 00:11:08;;;;;;;8.68;3.40;;;;;;;12.95;100.00;96964.72;5085786;28;20044;-56
2022/07/11 00:13:36;;;;;;;6.35;3.30;;;;;;;13.08;100.00;96970.50;5086211;28;20087;-45
2022/07/11 00:16:06;;;;;;;8.93;4.13;;;;;;;13.03;100.00;96965.63;5085989;28;20556;-50
2022/07/11 00:18:39;;;;;;;7.15;3.90;;;;;;;12.94;100.00;96961.22;5082301;28;20072;-46
2022/07/11 00:21:08;;;;;;;6.95;3.20;;;;;;;12.86;100.00;96965.59;5084285;28;20091;-44
2022/07/11 00:23:36;;;;;;;8.15;3.75;;;;;;;12.65;100.00;96966.63;5076265;28;20118;-49
2022/07/11 00:26:05;;;;;;;7.63;3.10;;;;;;;12.72;100.00;96966.88;5081614;28;20429;-45
2022/07/11 00:28:35;;;;;;;8.27;3.47;;;;;;;12.57;100.00;96964.72;5088009;28;20482;-52
2022/07/11 00:31:04;;;;;;;4.88;3.10;;;;;;;12.57;100.00;96964.72;5079631;28;20073;-49
2022/07/11 00:33:32;;;;;;;4.60;3.03;;;;;;;12.63;100.00;96965.09;5085458;28;20468;-51
2022/07/11 00:36:00;;;;;;;5.85;3.20;;;;;;;12.38;100.00;96959.47;5083343;28;20095;-54
2022/07/11 00:38:29;;;;;;;5.95;3.30;;;;;;;12.47;100.00;96966.56;5084651;28;20092;-51
2022/07/11 00:40:58;;;;;;;5.07;3.00;;;;;;;12.52;100.00;96952.91;5086043;28;20074;-51
2022/07/11 00:43:35;;;;;;;7.10;3.42;;;;;;;12.60;100.00;96955.66;5082436;28;20502;-49
2022/07/11 00:46:04;;;;;;;8.00;3.05;;;;;;;12.68;100.00;96947.00;5082286;28;20103;-49
2022/07/11 00:48:33;;;;;;;7.38;3.70;;;;;;;12.70;100.00;96947.69;5083618;28;20089;-57
2022/07/11 00:51:03;;;;;;;4.78;2.90;;;;;;;12.76;100.00;96950.56;5085366;28;20083;-45
2022/07/11 00:53:32;;;;;;;7.07;3.33;;;;;;;12.74;100.00;96941.13;5083794;28;20064;-58
2022/07/11 00:56:01;;;;;;;5.47;3.13;;;;;;;12.71;100.00;96944.06;5080937;28;20079;-44
2022/07/11 00:58:30;;;;;;;7.88;3.35;;;;;;;12.45;100.00;96947.34;5083035;28;20082;-55
2022/07/11 01:00:59;;;;;;;5.53;2.85;;;;;;;12.32;100.00;96952.97;5075072;28;20075;-45
2022/07/11 01:03:28;;;;;;;7.65;3.20;;;;;;;12.46;100.00;96946.38;5080052;28;20076;-52
2022/07/11 01:05:56;;;;;;;5.88;3.30;;;;;;;12.34;100.00;96940.41;5082681;28;20079;-50
2022/07/11 01:08:24;;;;;;;5.85;3.30;;;;;;;12.47;100.00;96945.41;5080408;28;20086;-54
2022/07/11 01:10:53;;;;;;;7.55;3.35;;;;;;;12.52;100.00;96945.78;5084038;28;20095;-47
2022/07/11 01:13:22;;;;;;;5.40;3.05;;;;;;;12.54;100.00;96945.66;5082301;28;20102;-49
2022/07/11 01:15:50;;;;;;;5.70;3.45;;;;;;;12.55;100.00;96944.69;5084779;28;20067;-53
2022/07/11 01:18:20;;;;;;;7.05;3.30;;;;;;;12.47;100.00;96941.94;5079051;28;20076;-48
2022/07/11 01:20:49;;;;;;;6.93;3.08;;;;;;;12.51;100.00;96949.41;5083817;28;20080;-48
2022/07/11 01:23:18;;;;;;;5.50;3.55;;;;;;;12.62;100.00;96943.09;5083329;28;20083;-46
2022/07/11 01:25:47;;;;;;;7.65;3.72;;;;;;;12.76;100.00;96942.63;5080651;28;20080;-53
2022/07/11 01:28:16;;;;;;;7.28;3.35;;;;;;;12.84;100.00;96939.28;5085384;28;20075;-48
2022/07/11 01:30:45;;;;;;;5.82;3.40;;;;;;;12.81;100.00;96935.09;5078185;28;21124;-43
2022/07/11 01:33:13;;;;;;;4.85;3.20;;;;;;;12.82;100.00;96931.47;5082966;28;20072;-55
2022/07/11 01:35:41;;;;;;;6.68;3.22;;;;;;;12.65;100.00;96934.88;5079739;28;20088;-50
2022/07/11 01:38:10;;;;;;;5.88;3.05;;;;;;;12.69;100.00;96938.91;5081215;28;20079;-48
2022/07/11 01:40:39;;;;;;;5.45;3.30;;;;;;;12.77;100.00;96927.59;5080531;28;20088;-49
2022/07/11 01:43:08;;;;;;;4.93;2.90;;;;;;;12.71;100.00;96928.19;5079693;28;20087;-48
2022/07/11 01:45:36;;;;;;;6.10;3.40;;;;;;;12.74;100.00;96928.72;5080351;28;20175;-48
2022/07/11 01:48:05;;;;;;;6.05;3.38;;;;;;;12.87;100.00;96928.41;5080628;28;20090;-47
2022/07/11 01:50:33;;;;;;;6.63;3.72;;;;;;;12.91;100.00;96929.75;5082113;28;20556;-47
2022/07/11 01:53:02;;;;;;;7.45;3.45;;;;;;;12.90;100.00;96922.78;5080153;28;20071;-58
2022/07/11 01:55:31;;;;;;;6.55;3.45;;;;;;;12.73;100.00;96920.91;5082834;28;20073;-45
2022/07/11 01:58:01;;;;;;;6.25;3.28;;;;;;;12.86;100.00;96924.06;5078760;28;20079;-49
2022/07/11 02:00:29;;;;;;;7.97;3.57;;;;;;;12.86;100.00;96912.66;5075388;28;20474;-47
2022/07/11 02:02:57;;;;;;;5.85;3.40;;;;;;;12.68;100.00;96916.06;5084725;28;20475;-54
2022/07/11 02:05:26;;;;;;;6.57;3.28;;;;;;;12.58;100.00;96923.22;5081575;28;20080;-46
2022/07/11 02:08:13;;;;;;;6.85;3.70;;;;;;;12.74;100.00;96914.66;5079455;28;20076;-46
2022/07/11 02:10:45;;;;;;;7.20;3.50;;;;;;;12.71;100.00;96909.66;5078217;28;20331;-53
2022/07/11 02:13:16;;;;;;;4.90;3.05;;;;;;;12.45;100.00;96915.59;5072521;28;20080;-47
2022/07/11 02:15:46;;;;;;;6.95;3.40;;;;;;;12.74;100.00;96909.38;5083681;28;20145;-47
2022/07/11 02:18:14;;;;;;;5.15;3.35;;;;;;;12.66;100.00;96912.72;5075922;28;20081;-50
2022/07/11 02:20:45;;;;;;;7.03;3.50;;;;;;;12.71;100.00;96914.97;5082026;28;20079;-47
2022/07/11 02:23:13;;;;;;;6.57;3.72;;;;;;;12.66;100.00;96914.53;5071008;28;20068;-53
2022/07/11 02:25:42;;;;;;;6.15;3.20;;;;;;;12.78;100.00;96913.38;5076388;28;20080;-47
2022/07/11 02:28:11;;;;;;;7.32;3.15;;;;;;;12.88;100.00;96908.88;5073384;28;20095;-49
2022/07/11 02:30:43;;;;;;;8.73;3.90;;;;;;;12.94;100.00;96910.94;5076563;28;20127;-48
2022/07/11 02:33:15;;;;;;;6.90;4.50;;;;;;;12.75;100.00;96911.03;5072481;28;20087;-45
2022/07/11 02:35:43;;;;;;;7.75;4.30;;;;;;;12.70;100.00;96911.47;5073823;28;20092;-48
2022/07/11 02:38:12;;;;;;;7.07;3.60;;;;;;;12.87;100.00;96911.66;5078952;28;20079;-44
2022/07/11 02:40:40;;;;;;;8.00;3.70;;;;;;;12.86;100.00;96910.81;5078407;28;20491;-43
2022/07/11 02:43:08;;;;;;;8.48;3.53;;;;;;;12.90;100.00;96909.53;5076897;28;20068;-50
2022/07/11 02:45:37;;;;;;;7.60;3.85;;;;;;;12.96;100.00;96910.78;5074808;28;20091;-53
2022/07/11 02:48:07;;;;;;;4.05;3.10;;;;;;;12.86;100.00;96910.00;5078185;28;20072;-46
2022/07/11 02:50:35;;;;;;;5.75;3.63;;;;;;;13.03;100.00;96911.84;5077671;28;20083;-47
2022/07/11 02:53:04;;;;;;;5.03;3.40;;;;;;;12.75;100.00;96917.16;5068872;28;20479;-48
2022/07/11 02:55:32;;;;;;;8.32;3.95;;;;;;;12.89;100.00;96915.81;5076581;28;20071;-46
2022/07/11 02:58:00;;;;;;;5.80;3.55;;;;;;;13.00;100.00;96912.97;5077294;28;20068;-44
2022/07/11 03:00:28;;;;;;;5.38;3.00;;;;;;;12.94;100.00;96915.38;5072912;28;20083;-51
2022/07/11 03:02:57;;;;;;;7.75;3.17;;;;;;;12.82;100.00;96906.81;5072120;28;20071;-49
2022/07/11 03:05:27;;;;;;;3.95;2.67;;;;;;;13.03;100.00;96912.69;5075114;28;20079;-44
2022/07/11 03:07:55;;;;;;;4.70;3.07;;;;;;;12.80;100.00;96912.28;5073193;28;20068;-44
2022/07/11 03:10:24;;;;;;;5.30;2.80;;;;;;;13.17;100.00;96907.84;5074686;28;20082;-48
2022/07/11 03:12:52;;;;;;;3.95;2.83;;;;;;;13.14;100.00;96905.50;5075097;28;20560;-47
2022/07/11 03:15:21;;;;;;;5.78;2.53;;;;;;;13.23;100.00;96907.25;5071622;28;20103;-45
2022/07/11 03:17:50;;;;;;;4.47;2.42;;;;;;;13.48;100.00;96898.59;5083897;28;20082;-45
2022/07/11 03:20:19;;;;;;;4.57;2.47;;;;;;;13.41;100.00;96892.22;5078022;28;20079;-47
2022/07/11 03:22:49;;;;;;;4.57;2.72;;;;;;;13.51;100.00;96900.94;5077568;28;20075;-55
2022/07/11 03:25:17;;;;;;;5.03;2.58;;;;;;;13.49;100.00;96894.97;5076176;28;20079;-52
2022/07/11 03:27:45;;;;;;;4.88;2.53;;;;;;;13.81;100.00;96896.22;5076895;28;20063;-48
2022/07/11 03:30:14;;;;;;;3.58;2.35;;;;;;;13.89;100.00;96892.78;5079381;28;20071;-48
2022/07/11 03:32:43;;;;;;;4.47;2.80;;;;;;;13.99;100.00;96896.19;5081370;28;20087;-44
2022/07/11 03:37:58;;;;;;;5.95;3.33;;;;;;;13.90;100.00;96889.16;5082203;28;20079;-48
2022/07/11 03:40:27;;;;;;;5.80;3.30;;;;;;;13.60;100.00;96893.91;5078601;28;20072;-45
2022/07/11 03:42:55;;;;;;;5.07;2.90;;;;;;;13.57;100.00;96901.34;5081995;28;20521;-46
2022/07/11 03:45:23;;;;;;;5.82;3.00;;;;;;;14.07;100.00;96900.72;5080431;28;20577;-47
2022/07/11 03:47:52;;;;;;;4.40;2.50;;;;;;;13.89;100.00;96893.63;5079999;28;20087;-45
2022/07/11 03:50:20;;;;;;;5.03;2.30;;;;;;;14.08;100.00;96894.44;5084418;28;20076;-44
2022/07/11 03:52:48;;;;;;;6.15;2.50;;;;;;;14.27;100.00;96891.56;5081933;28;20481;-49
2022/07/11 03:55:18;;;;;;;3.55;2.25;;;;;;;14.41;100.00;96892.78;5084932;28;20097;-48
2022/07/11 03:57:46;;;;;;;3.45;2.10;;;;;;;14.63;100.00;96889.63;5082770;28;20083;-50
2022/07/11 04:00:16;;;;;;;4.32;2.40;;;;;;;14.39;100.00;96894.78;5080584;28;20072;-46
2022/07/11 04:02:44;;;;;;;4.53;2.20;;;;;;;14.28;100.00;96901.19;5078345;28;21293;-44
2022/07/11 04:05:13;;;;;;;4.30;2.33;;;;;;;14.48;100.00;96899.94;5079123;28;20090;-51
2022/07/11 04:07:42;;;;;;;3.72;1.83;;;;;;;14.38;100.00;96901.06;5084947;28;20075;-48
2022/07/11 04:10:10;;;;;;;2.72;1.90;;;;;;;14.71;100.00;96899.44;5083528;28;20067;-45
2022/07/11 04:12:40;;;;;;;5.15;2.08;;;;;;;14.71;100.00;96897.63;5083422;28;20648;-48
2022/07/11 04:15:10;;;;;;;3.92;2.28;;;;;;;14.75;100.00;96899.94;5079948;28;20075;-43
2022/07/11 04:17:38;;;;;;;5.68;2.20;;;;;;;15.03;100.00;96898.72;5079944;28;20082;-43
2022/07/11 04:20:08;;;;;;;2.90;1.90;;;;;;;15.16;100.00;96899.09;5084963;28;20072;-44
2022/07/11 04:22:36;;;;;;;5.43;2.08;;;;;;;15.09;100.00;96898.06;5078536;28;20079;-47
2022/07/11 04:25:05;;;;;;;6.53;2.20;;;;;;;15.10;100.00;96893.59;5082183;28;20075;-50
2022/07/11 04:27:33;;;;;;;4.43;2.55;;;;;;;15.10;100.00;96896.25;5076854;28;20079;-44
2022/07/11 04:30:10;;;;;;;4.95;2.17;;;;;;;15.46;100.00;96886.19;5078621;28;20087;-49
2022/07/11 04:32:38;;;;;;;3.97;2.17;;;;;;;15.32;100.00;96889.50;5069778;28;20080;-46
2022/07/11 04:35:08;;;;;;;5.20;2.10;;;;;;;15.64;100.00;96886.88;5088069;28;20071;-45
2022/07/11 04:37:36;;;;;;;3.03;2.03;;;;;;;15.25;100.00;96881.34;5091384;28;20063;-43
2022/07/11 04:40:06;;;;;;;5.90;2.20;;;;;;;15.33;100.00;96891.16;5090919;28;20075;-48
2022/07/11 04:42:40;;;;;;;5.38;2.17;;;;;;;15.68;100.00;96894.53;5090657;28;20075;-44
2022/07/11 04:45:10;;;;;;;3.22;1.95;;;;;;;15.78;100.00;96893.38;5090182;28;20076;-45
2022/07/11 04:47:39;;;;;;;3.38;2.10;;;;;;;15.72;100.00;96894.03;5090769;28;20546;-47
2022/07/11 04:50:08;;;;;;;4.22;2.10;;;;;;;15.56;100.00;96897.50;5090924;28;20099;-48
2022/07/11 04:52:37;;;;;;;7.20;2.10;;;;;;;15.84;100.00;96890.06;5084598;28;20177;-49
2022/07/11 04:55:06;;;;;;;7.05;2.17;;;;;;;15.57;100.00;96890.34;5084305;28;20439;-51
2022/07/11 04:57:35;;;;;;;4.07;2.05;;;;;;;15.73;100.00;96890.41;5091224;28;20086;-45
2022/07/11 05:00:05;;;;;;;3.05;1.55;;;;;;;16.17;100.00;96898.00;5084297;28;20079;-54
2022/07/11 05:02:35;;;;;;;3.10;1.90;;;;;;;16.37;100.00;96901.94;5090952;28;20083;-54
2022/07/11 05:05:04;;;;;;;4.70;1.70;;;;;;;16.37;100.00;96912.59;5090554;28;20572;-43
2022/07/11 05:07:33;;;;;;;3.63;1.73;;;;;;;16.28;100.00;96916.28;5089861;28;20083;-44
2022/07/11 05:10:01;;;;;;;4.47;1.98;;;;;;;16.31;100.00;96912.44;5099303;28;20071;-45
2022/07/11 05:12:30;;;;;;;2.65;1.80;;;;;;;15.80;100.00;96922.47;5089968;28;20075;-47
2022/07/11 05:14:59;;;;;;;4.00;1.83;;;;;;;16.42;100.00;96916.59;5084822;28;20518;-43
2022/07/11 05:17:27;;;;;;;3.97;1.75;;;;;;;16.61;100.00;96924.19;5090956;28;20074;-45
2022/07/11 05:19:57;;;;;;;4.05;1.88;;;;;;;16.76;100.00;96913.72;5090086;28;20075;-43
2022/07/11 05:22:25;;;;;;;2.90;1.80;;;;;;;16.71;100.00;96916.00;5090271;28;20068;-45
2022/07/11 05:24:54;;;;;;;3.25;1.83;;;;;;;16.36;100.00;96923.41;5090424;28;20072;-43
2022/07/11 05:27:22;;;;;;;3.90;1.88;;;;;;;16.38;100.00;96916.09;5085488;28;20068;-50
2022/07/11 05:29:51;;;;;;;5.25;2.00;;;;;;;17.02;100.00;96921.41;5089813;28;20102;-45
2022/07/11 05:32:19;;;;;;;6.13;2.15;;;;;;;17.50;100.00;96919.47;5090246;28;20115;-43
2022/07/11 05:34:47;;;;;;;3.75;1.90;;;;;;;17.46;100.00;96915.50;5089818;28;20083;-52
2022/07/11 05:37:17;;;;;;;4.75;1.88;;;;;;;17.44;100.00;96917.50;5090190;28;20443;-49
2022/07/11 05:39:45;;;;;;;6.23;2.30;;;;;;;16.98;100.00;96918.25;5089822;28;20076;-50
2022/07/11 05:42:14;;;;;;;3.88;2.13;;;;;;;17.20;100.00;96921.97;5089540;28;20494;-45
2022/07/11 05:44:42;;;;;;;3.72;1.85;;;;;;;17.23;100.00;96918.97;5090127;28;20087;-50
2022/07/11 05:47:11;;;;;;;3.53;1.73;;;;;;;17.55;100.00;96920.63;5089805;28;20165;-50
2022/07/11 05:49:39;;;;;;;2.97;2.03;;;;;;;17.99;100.00;96924.47;5090003;28;20481;-45
2022/07/11 05:52:08;;;;;;;3.70;1.98;;;;;;;17.95;100.00;96929.34;5089560;28;20090;-48
2022/07/11 05:54:38;;;;;;;5.55;1.73;;;;;;;17.81;100.00;96927.47;5090011;28;20080;-44
2022/07/11 05:57:06;;;;;;;7.85;2.08;;;;;;;18.09;100.00;96927.72;5086461;28;20079;-50
2022/07/11 05:59:37;;;;;;;3.13;2.03;;;;;;;18.11;100.00;96933.72;5088690;28;20528;-50
2022/07/11 06:02:06;;;;;;;5.03;2.10;;;;;;;18.38;100.00;96932.31;5087194;28;20182;-52
2022/07/11 06:04:36;;;;;;;6.68;2.10;;;;;;;18.63;100.00;96935.56;5095716;28;20076;-44
2022/07/11 06:07:05;;;;;;;4.07;1.80;;;;;;;18.31;100.00;96930.56;5090225;28;20120;-44
2022/07/11 06:09:33;;;;;;;4.88;2.00;;;;;;;18.37;100.00;96927.13;5084007;28;20536;-47
2022/07/11 06:12:03;;;;;;;3.67;1.90;;;;;;;18.70;100.00;96928.47;5088727;28;20072;-44
2022/07/11 06:14:31;;;;;;;4.35;1.75;;;;;;;18.50;100.00;96930.84;5089533;28;20491;-45
2022/07/11 06:17:00;;;;;;;4.65;1.83;;;;;;;18.77;100.00;96927.75;5089019;28;20804;-47
2022/07/11 06:19:29;;;;;;;5.40;1.77;;;;;;;19.01;100.00;96922.13;5089457;28;20099;-50
2022/07/11 06:21:57;;;;;;;3.25;1.70;;;;;;;19.14;100.00;96932.97;5089134;28;20478;-47
2022/07/11 06:24:26;;;;;;;4.22;1.63;;;;;;;18.70;100.00;96925.78;5089429;28;20094;-46
2022/07/11 06:26:58;;;;;;;3.13;1.60;;;;;;;18.79;100.00;96920.38;5089020;28;20075;-45
2022/07/11 06:29:29;;;;;;;6.55;1.90;;;;;;;19.28;100.00;96922.44;5089523;28;20467;-45
2022/07/11 06:31:57;;;;;;;2.80;1.52;;;;;;;18.85;100.00;96924.97;5089162;28;20114;-47
2022/07/11 06:34:26;;;;;;;3.55;1.45;;;;;;;19.37;100.00;96923.97;5083149;28;20533;-48
2022/07/11 06:36:54;;;;;;;1.83;1.33;;;;;;;19.90;100.00;96920.03;5088191;28;20068;-50
2022/07/11 06:39:22;;;;;;;5.57;1.67;;;;;;;19.45;100.00;96927.38;5088624;28;20076;-48
2022/07/11 06:41:51;;;;;;;3.58;1.30;;;;;;;18.89;100.00;96927.13;5084990;28;20098;-45
2022/07/11 06:44:19;;;;;;;7.13;1.52;;;;;;;19.20;100.00;96932.25;5088107;28;20079;-51
2022/07/11 06:46:56;;;;;;;4.47;1.42;;;;;;;19.43;100.00;96924.06;5089338;28;20422;-44
2022/07/11 06:49:25;;;;;;;3.22;1.27;;;;;;;19.58;100.00;96932.06;5088810;28;20544;-50
2022/07/11 06:51:53;;;;;;;2.72;1.20;;;;;;;20.06;100.00;96916.28;5081839;28;20075;-44
2022/07/11 06:54:22;;;;;;;3.78;1.23;;;;;;;19.72;100.00;96913.47;5089040;28;20064;-51
2022/07/11 06:56:50;;;;;;;3.92;1.45;;;;;;;20.14;100.00;96912.63;5088164;28;20064;-53
2022/07/11 06:59:19;;;;;;;4.82;1.60;;;;;;;19.90;100.00;96913.88;5087600;28;20108;-48
2022/07/11 07:01:47;;;;;;;3.03;1.27;;;;;;;20.15;100.00;96917.78;5093911;28;20369;-45
2022/07/11 07:07:49;;;;;;;4.82;1.45;;;;;;;20.12;100.00;96925.38;5074526;28;20051;-47
2022/07/11 07:10:17;;;;;;;3.53;1.35;;;;;;;20.69;100.00;96918.19;5090059;28;20079;-52
2022/07/11 07:12:46;;;;;;;3.83;1.23;;;;;;;20.53;100.00;96914.78;5092830;28;20501;-47
2022/07/11 07:15:14;;;;;;;2.83;1.17;;;;;;;21.31;100.00;96917.25;5091031;28;20048;-46
2022/07/11 07:17:42;;;;;;;4.38;1.50;;;;;;;21.28;100.00;96914.97;5093508;28;20067;-45
2022/07/11 07:20:13;;;;;;;3.08;1.10;;;;;;;21.27;100.00;96919.50;5114559;27;20067;-47
2022/07/11 07:22:41;;;;;;;3.92;1.15;;;;;;;21.27;100.00;96913.31;5092884;28;20088;-45
2022/07/11 07:25:10;;;;;;;2.72;1.20;;;;;;;21.92;100.00;96917.22;5092683;28;20154;-51
2022/07/11 07:27:38;;;;;;;4.22;1.45;;;;;;;21.14;100.00;96918.63;5090739;28;20075;-48
2022/07/11 07:30:07;;;;;;;3.78;1.20;;;;;;;20.97;100.00;96923.50;5092444;28;20084;-47
2022/07/11 07:32:36;;;;;;;5.90;1.20;;;;;;;21.99;100.00;96917.25;5092822;28;20067;-45
2022/07/11 07:35:06;;;;;;;4.20;1.10;;;;;;;21.68;100.00;96926.69;5088518;28;20079;-52
2022/07/11 07:37:36;;;;;;;;;;;;;;;22.09;100.00;96928.38;5092493;28;20071;-47
2022/07/11 07:40:05;;;;;;;3.47;1.13;;;;;;;22.67;95.06;96920.50;5083393;28;19958;-44
2022/07/11 07:42:34;;;;;;;3.72;1.00;;;;;;;22.30;92.76;96919.34;5091338;28;20126;-54
2022/07/11 07:45:02;;;;;;;4.35;1.20;;;;;;;22.59;99.46;96914.56;5092357;28;20083;-47
2022/07/11 07:47:30;;;;;;;5.60;1.33;;;;;;;22.42;100.00;96919.53;5090246;28;20079;-45
2022/07/11 07:49:59;;;;;;;3.78;1.40;;;;;;;22.14;92.93;96923.22;5091558;28;20076;-52
2022/07/11 07:52:27;;;;;;;6.47;1.63;;;;;;;22.68;92.48;96921.38;5090235;28;20463;-50
2022/07/11 07:54:57;;;;;;;7.40;1.38;;;;;;;21.91;88.49;96923.63;5092261;28;20079;-47
2022/07/11 07:57:25;;;;;;;4.65;1.33;;;;;;;22.96;80.39;96918.44;5092085;28;20074;-51
2022/07/11 08:01:34;;;;;;;3.15;1.30;;;;;;;23.19;76.58;96920.59;5101640;28;20090;-45
2022/07/11 08:02:42;;;;;;;2.53;1.10;;;;;;;23.04;85.01;96915.50;5089718;28;20473;-44
2022/07/11 08:05:11;;;;;;;3.28;1.10;;;;;;;22.58;84.84;96904.84;5091508;28;20091;-45
2022/07/11 08:07:40;;;;;;;2.47;1.13;;;;;;;23.40;91.34;96911.41;5091742;28;20082;-50
2022/07/11 08:10:11;;;;;;;5.97;1.13;;;;;;;23.32;86.62;96911.66;5088163;28;20083;-48
2022/07/11 08:12:39;;;;;;;4.85;1.20;;;;;;;24.07;73.73;96903.78;5091888;28;20056;-45
2022/07/11 08:15:09;;;;;;;2.20;1.00;;;;;;;22.77;73.55;96912.03;5091229;28;20119;-45
2022/07/11 08:17:37;;;;;;;4.13;1.43;;;;;;;22.77;80.63;96914.72;5090438;28;20071;-49
2022/07/11 08:20:07;;;;;;;4.10;1.20;;;;;;;22.78;82.78;96918.22;5091712;28;20544;-48
2022/07/11 08:22:35;;;;;;;3.80;1.30;;;;;;;21.92;96.88;96909.19;5091121;28;20083;-45
2022/07/11 08:25:04;;;;;;;4.13;1.23;;;;;;;22.11;97.75;96909.38;5091555;28;20071;-48
2022/07/11 08:27:35;;;;;;;4.57;1.20;;;;;;;21.86;100.00;96910.00;5092035;28;20151;-47
2022/07/11 08:30:08;;;;;;;2.10;1.20;;;;;;;22.80;93.70;96908.09;5091547;28;20506;-52
2022/07/11 08:32:39;;;;;;;3.53;1.30;;;;;;;23.37;86.63;96906.47;5089356;28;20079;-49
2022/07/11 08:35:09;;;;;;;2.70;1.27;;;;;;;23.40;81.67;96906.03;5091320;28;20068;-45
2022/07/11 08:37:37;;;;;;;2.13;1.08;;;;;;;23.64;86.18;96896.34;5091045;28;20449;-46
2022/07/11 08:40:07;;;;;;;4.32;1.20;;;;;;;23.79;92.17;96907.72;5091263;28;20075;-51
2022/07/11 08:42:41;;;;;;;3.55;1.20;;;;;;;23.88;85.31;96906.41;5090963;28;20094;-46
2022/07/11 08:45:12;;;;;;;1.55;0.63;;;;;;;23.36;96.01;96907.50;5085307;28;20075;-49
2022/07/11 08:47:41;;;;;;;3.67;1.00;;;;;;;23.66;82.21;96900.50;5087578;28;20067;-50
2022/07/11 08:50:10;;;;;;;7.47;1.30;;;;;;;24.21;80.61;96889.16;5087130;28;20078;-45
2022/07/11 08:52:39;;;;;;;1.60;0.73;;;;;;;24.07;68.40;96893.81;5091746;28;20532;-47
2022/07/11 08:55:09;;;;;;;2.67;0.90;;;;;;;24.91;72.94;96890.78;5102107;28;20481;-47
2022/07/11 08:57:38;;;;;;;2.92;0.70;;;;;;;24.19;81.83;96893.94;5089264;28;20091;-47
2022/07/11 09:00:09;;;;;;;1.92;0.68;;;;;;;23.93;75.96;96887.72;5088209;28;20082;-52
2022/07/11 09:02:41;;;;;;;3.75;0.75;;;;;;;23.63;83.54;96895.53;5091006;28;20076;-49
2022/07/11 09:05:10;;;;;;;1.80;0.60;;;;;;;23.74;78.97;96888.66;5090341;28;20080;-45
2022/07/11 09:07:43;;;;;;;1.65;0.50;;;;;;;22.04;100.00;96894.09;5091141;28;20537;-45
2022/07/11 09:10:12;;;;;;;1.33;0.60;;;;;;;22.19;99.28;96890.38;5089098;28;20090;-47
2022/07/11 09:12:59;;;;;;;4.38;0.60;;;;;;;22.70;95.91;96889.69;5086266;28;20083;-45
2022/07/11 09:15:35;;;;;;;1.73;0.75;;;;;;;22.46;100.00;96883.13;5086938;28;20595;-50
2022/07/11 09:18:04;;;;;;;1.20;0.60;;;;;;;22.00;100.00;96889.34;5090630;28;20070;-45
2022/07/11 09:26:30;;;;;;;3.40;0.80;;;;;;;22.24;100.00;96893.28;5087294;28;20067;-45
2022/07/11 09:29:08;;;;;;;2.50;0.65;;;;;;;22.26;100.00;96891.22;5090252;28;20098;-51
2022/07/11 09:31:38;;;;;;;4.95;1.15;;;;;;;22.23;100.00;96899.72;5089867;28;20072;-49
2022/07/11 09:34:09;;;;;;;3.08;0.88;;;;;;;22.69;100.00;96909.56;5089149;28;20075;-48
2022/07/11 09:36:39;;;;;;;5.32;0.90;;;;;;;22.73;100.00;96902.72;5089827;28;20092;-46
2022/07/11 09:39:08;;;;;;;2.80;0.90;;;;;;;23.18;100.00;96900.94;5084507;28;20071;-50
2022/07/11 09:41:38;;;;;;;3.75;1.00;;;;;;;23.22;96.50;96895.97;5087332;28;20489;-56
2022/07/11 09:44:09;;;;;;;2.60;0.95;;;;;;;23.73;90.19;96888.91;5088419;28;20080;-46
2022/07/11 09:46:37;;;;;;;4.40;0.88;;;;;;;24.24;97.26;96886.00;5089760;28;20149;-47
2022/07/11 09:49:07;;;;;;;1.40;0.80;;;;;;;23.87;91.12;96887.75;5093497;28;20083;-45
2022/07/11 09:51:36;;;;;;;1.80;0.70;;;;;;;22.96;99.60;96889.66;5093410;28;20084;-46
2022/07/11 09:54:06;;;;;;;2.10;0.60;;;;;;;23.39;96.08;96885.53;5090114;28;20343;-45
2022/07/11 09:56:36;;;;;;;1.30;0.65;;;;;;;23.59;92.07;96885.44;5088977;28;20078;-48
2022/07/11 09:59:25;;;;;;;1.38;0.90;;;;;;;23.83;94.27;96881.16;5089859;28;20079;-49
2022/07/11 10:01:54;;;;;;;2.10;0.65;;;;;;;23.83;100.00;96879.28;5089770;28;20521;-44
2022/07/11 10:04:23;;;;;;;1.23;0.50;;;;;;;23.31;98.41;96885.78;5082496;28;20071;-45
2022/07/11 10:06:51;;;;;;;0.90;0.60;;;;;;;23.58;100.00;96889.19;5089920;28;20060;-53
2022/07/11 10:09:20;;;;;;;0.77;0.50;;;;;;;23.66;98.22;96897.81;5087893;28;20068;-45
2022/07/11 10:11:48;;;;;;;1.55;0.63;;;;;;;23.57;96.60;96892.88;5089217;28;20169;-47
2022/07/11 10:14:17;;;;;;;1.17;0.50;;;;;;;23.15;88.15;96900.56;5089222;28;20528;-51
2022/07/11 10:16:53;;;;;;;1.20;0.50;;;;;;;23.32;84.52;96893.63;5089426;28;20074;-53
2022/07/11 10:19:29;;;;;;;2.20;0.57;;;;;;;23.05;98.11;96894.78;5089213;28;20451;-49
2022/07/11 10:22:07;;;;;;;1.25;0.68;;;;;;;22.97;100.00;96895.88;5088064;28;20040;-45
2022/07/11 10:24:44;;;;;;;1.27;0.70;;;;;;;23.10;100.00;96901.19;5085607;28;20585;-47
2022/07/11 10:27:21;;;;;;;2.33;0.80;;;;;;;23.11;100.00;96899.34;5089329;28;20084;-49
2022/07/11 10:29:51;;;;;;;2.30;0.80;;;;;;;22.44;100.00;96904.03;5089212;28;20083;-47
2022/07/11 10:32:21;;;;;;;2.70;0.77;;;;;;;22.31;100.00;96907.56;5089010;28;20079;-44
2022/07/11 10:35:08;;;;;;;1.33;0.73;;;;;;;22.54;100.00;96908.97;5089192;28;20071;-47
2022/07/11 10:37:54;;;;;;;3.53;0.85;;;;;;;21.93;100.00;96905.44;5079233;28;20079;-47
2022/07/11 10:40:42;;;;;;;0.90;0.70;;;;;;;22.06;100.00;96918.06;5087924;28;20137;-48
2022/07/11 10:43:10;;;;;;;1.20;0.70;;;;;;;22.33;100.00;96920.75;5082978;28;20122;-55
2022/07/11 10:45:59;;;;;;;1.80;0.90;;;;;;;21.82;100.00;96916.81;5092220;28;20500;-46
2022/07/11 10:48:31;;;;;;;0.95;0.80;;;;;;;21.84;100.00;96921.97;5089043;28;20098;-47
2022/07/11 10:51:05;;;;;;;3.05;0.80;;;;;;;22.33;100.00;96923.44;5084486;28;20052;-49
2022/07/11 10:53:40;;;;;;;2.75;1.08;;;;;;;21.89;100.00;96924.88;5088547;28;20114;-45
2022/07/11 10:56:21;;;;;;;1.83;0.70;;;;;;;21.99;100.00;96925.28;5089739;28;20076;-48
2022/07/11 10:59:14;;;;;;;3.20;0.82;;;;;;;22.14;100.00;96925.91;5085487;28;20072;-45
2022/07/11 11:02:02;;;;;;;1.05;0.85;;;;;;;22.06;100.00;96923.44;5087162;28;20399;-48
2022/07/11 11:04:49;;;;;;;0.95;0.80;;;;;;;22.52;100.00;96925.31;5085400;28;20083;-49
2022/07/11 11:07:35;;;;;;;5.00;0.90;;;;;;;22.15;100.00;96927.59;5088403;28;20672;-46
2022/07/11 11:10:06;;;;;;;2.53;0.82;;;;;;;22.61;100.00;96918.69;5088822;28;20521;-51
2022/07/11 11:13:14;;;;;;;2.85;0.95;;;;;;;22.83;100.00;96921.94;5088852;28;20079;-48
2022/07/11 11:15:44;;;;;;;0.90;0.68;;;;;;;23.12;100.00;96920.63;5088727;28;20083;-55
2022/07/11 11:18:34;;;;;;;2.08;0.70;;;;;;;23.92;100.00;96926.47;5087606;28;20076;-45
2022/07/11 11:21:21;;;;;;;4.95;0.80;;;;;;;24.06;100.00;96915.63;5088337;28;20075;-48
2022/07/11 11:24:16;;;;;;;4.28;1.00;;;;;;;24.72;94.78;96916.94;5086714;28;20091;-49
2022/07/11 11:26:50;;;;;;;4.22;1.10;;;;;;;25.05;93.12;96912.00;5052650;28;20075;-50
2022/07/11 11:29:20;;;;;;;1.35;0.60;;;;;;;25.72;82.61;96906.59;5084525;28;20434;-45
2022/07/11 11:31:54;;;;;;;2.55;1.02;;;;;;;25.84;69.56;96914.75;5088464;28;20079;-47
2022/07/11 11:34:23;;;;;;;2.97;0.80;;;;;;;25.92;76.60;96906.34;5085016;28;20099;-49
2022/07/11 11:36:57;;;;;;;1.77;0.70;;;;;;;26.17;65.10;96898.03;5087421;28;20545;-50
2022/07/11 11:39:27;;;;;;;2.63;0.93;;;;;;;26.80;58.42;96901.94;5085551;28;20083;-51
2022/07/11 11:42:01;;;;;;;;;;;;;;;27.02;57.94;96904.88;5082172;28;20067;-45
2022/07/11 11:44:29;;;;;;;2.50;0.80;;;;;;;26.57;60.71;96910.09;5097159;28;19967;-45
2022/07/11 11:46:58;;;;;;;1.60;0.68;;;;;;;26.01;61.80;96913.03;5087282;28;20079;-51
2022/07/11 11:49:26;;;;;;;1.17;0.80;;;;;;;26.99;55.65;96908.06;5088357;28;20147;-51
2022/07/11 11:51:57;;;;;;;2.28;0.90;;;;;;;27.10;57.64;96907.22;5087587;28;20102;-50
2022/07/11 11:54:26;;;;;;;1.17;0.70;;;;;;;26.72;61.61;96900.44;5087361;28;20084;-44